createdAt,value
2023-01-04T00:03:59.359Z,3.40
2023-01-04T00:08:21.157Z,3.30
2023-01-04T00:12:43.164Z,3.30
2023-01-04T00:17:05.527Z,3.40
2023-01-04T00:21:31.625Z,3.40
2023-01-04T00:25:53.301Z,3.30
2023-01-04T00:30:15.233Z,3.30
2023-01-04T00:34:37.319Z,3.40
2023-01-04T00:39:08.399Z,3.40
2023-01-04T00:43:30.836Z,3.40
2023-01-04T00:47:52.745Z,3.30
2023-01-04T00:52:14.786Z,3.30
2023-01-04T00:56:36.709Z,3.20
2023-01-04T01:01:08.296Z,3.10
2023-01-04T01:05:30.779Z,3.00
2023-01-04T01:09:52.760Z,2.80
2023-01-04T01:14:20.431Z,2.70
2023-01-04T01:18:46.112Z,2.60
2023-01-04T01:23:08.099Z,2.40
2023-01-04T01:27:30.105Z,2.40
2023-01-04T01:31:52.341Z,2.50
2023-01-04T01:36:16.243Z,2.70
2023-01-04T01:40:42.597Z,2.80
2023-01-04T01:45:29.505Z,2.70
2023-01-04T01:49:54.592Z,2.60
2023-01-04T01:54:41.347Z,2.60
2023-01-04T01:59:03.621Z,2.60
2023-01-04T02:03:49.403Z,2.80
2023-01-04T02:08:12.838Z,2.90
2023-01-04T02:12:34.512Z,3.00
2023-01-04T02:17:39.227Z,3.10
2023-01-04T02:22:31.903Z,3.10
2023-01-04T02:27:14.818Z,3.10
2023-01-04T02:31:57.417Z,3.20
2023-01-04T02:36:45.864Z,3.30
2023-01-04T02:41:55.121Z,3.70
2023-01-04T02:46:29.603Z,3.70
2023-01-04T02:51:01.023Z,3.90
2023-01-04T02:55:23.100Z,3.80
2023-01-04T03:00:10.173Z,3.80
2023-01-04T03:04:58.792Z,3.80
2023-01-04T03:09:25.792Z,4.00
2023-01-04T03:13:48.923Z,4.20
2023-01-04T03:18:26.571Z,4.30
2023-01-04T03:23:23.839Z,4.30
2023-01-04T03:28:06.324Z,4.50
2023-01-04T03:32:58.895Z,4.50
2023-01-04T03:37:30.510Z,4.60
2023-01-04T03:42:46.784Z,4.70
2023-01-04T03:47:43.720Z,4.80
2023-01-04T03:52:07.982Z,4.80
2023-01-04T03:56:31.259Z,4.90
2023-01-04T04:00:53.573Z,4.90
2023-01-04T04:05:43.282Z,5.00
2023-01-04T04:10:05.676Z,4.90
2023-01-04T04:14:27.695Z,4.80
2023-01-04T04:18:49.619Z,4.90
2023-01-04T04:23:11.699Z,4.80
2023-01-04T04:27:33.592Z,4.80
2023-01-04T04:31:55.462Z,4.80
2023-01-04T04:36:17.432Z,4.80
2023-01-04T04:40:58.166Z,4.80
2023-01-04T04:45:20.349Z,4.80
2023-01-04T04:49:42.372Z,4.80
2023-01-04T04:54:04.734Z,4.90
2023-01-04T04:58:26.362Z,5.10
2023-01-04T05:02:48.631Z,5.30
2023-01-04T05:07:12.650Z,5.40
2023-01-04T05:11:52.717Z,5.50
2023-01-04T05:16:14.609Z,5.50
2023-01-04T05:20:36.770Z,5.70
2023-01-04T05:24:58.818Z,5.80
2023-01-04T05:29:39.707Z,5.80
2023-01-04T05:34:01.927Z,5.80
2023-01-04T05:38:24.389Z,5.80
2023-01-04T05:42:46.117Z,5.70
2023-01-04T05:47:14.516Z,5.80
2023-01-04T05:51:36.658Z,6.00
2023-01-04T05:55:58.677Z,6.10
2023-01-04T06:00:20.664Z,6.20
2023-01-04T06:04:42.626Z,6.30
2023-01-04T06:09:04.510Z,6.40
2023-01-04T06:13:26.435Z,6.50
2023-01-04T06:17:48.429Z,6.40
2023-01-04T06:22:10.679Z,6.50
2023-01-04T06:26:32.233Z,6.40
2023-01-04T06:30:54.187Z,6.40
2023-01-04T06:35:16.171Z,6.30
2023-01-04T06:39:38.419Z,6.40
2023-01-04T06:44:00.796Z,6.40
2023-01-04T06:48:22.473Z,6.40
2023-01-04T06:52:44.514Z,6.40
2023-01-04T06:57:06.451Z,6.50
2023-01-04T07:01:28.363Z,6.60
2023-01-04T07:05:50.286Z,6.70
2023-01-04T07:10:12.407Z,6.90
2023-01-04T07:14:34.451Z,7.00
2023-01-04T07:18:56.489Z,7.10
2023-01-04T07:23:18.330Z,7.20
2023-01-04T07:27:40.140Z,7.30
2023-01-04T07:32:02.613Z,7.20
2023-01-04T07:36:24.215Z,7.20
2023-01-04T07:40:55.918Z,7.20
2023-01-04T07:45:18.766Z,7.20
2023-01-04T07:49:40.828Z,7.20
2023-01-04T07:54:02.675Z,7.30
2023-01-04T07:58:25.893Z,7.40
2023-01-04T08:02:50.178Z,7.40
2023-01-04T08:07:11.949Z,7.30
2023-01-04T08:11:35.193Z,7.10
2023-01-04T08:15:57.246Z,6.90
2023-01-04T08:20:19.523Z,6.80
2023-01-04T08:24:41.207Z,6.80
2023-01-04T08:29:03.059Z,6.70
2023-01-04T08:33:25.212Z,6.80
2023-01-04T08:37:46.883Z,7.00
2023-01-04T08:42:19.424Z,7.10
2023-01-04T08:46:44.463Z,7.10
2023-01-04T08:51:14.127Z,7.00
2023-01-04T08:55:36.031Z,6.80
2023-01-04T08:59:58.024Z,6.80
2023-01-04T09:04:20.023Z,6.90
2023-01-04T09:08:44.256Z,6.90
2023-01-04T09:13:06.710Z,7.00
2023-01-04T09:17:28.471Z,7.00
2023-01-04T09:21:51.001Z,7.10
2023-01-04T09:26:15.666Z,7.10
2023-01-04T09:30:37.278Z,7.10
2023-01-04T09:34:59.303Z,7.20
2023-01-04T09:39:23.789Z,7.20
2023-01-04T09:44:00.947Z,7.20
2023-01-04T09:48:29.154Z,7.20
2023-01-04T09:53:03.033Z,7.10
2023-01-04T09:57:37.325Z,7.20
2023-01-04T10:02:13.934Z,7.30
2023-01-04T10:06:37.155Z,7.30
2023-01-04T10:11:26.957Z,7.40
2023-01-04T10:17:12.134Z,7.40
2023-01-04T10:21:55.373Z,7.30
2023-01-04T10:26:25.963Z,7.20
2023-01-04T10:31:39.623Z,7.20
2023-01-04T10:36:03.181Z,7.30
2023-01-04T10:40:27.676Z,7.30
2023-01-04T10:45:09.636Z,7.40
2023-01-04T10:49:53.105Z,7.50
2023-01-04T10:54:52.905Z,7.60
2023-01-04T10:59:55.356Z,7.60
2023-01-04T11:04:33.424Z,7.60
2023-01-04T11:08:58.562Z,7.60
2023-01-04T11:13:20.280Z,7.60
2023-01-04T11:17:43.245Z,7.60
2023-01-04T11:22:30.695Z,7.60
2023-01-04T11:26:54.536Z,7.60
2023-01-04T11:31:44.461Z,7.60
2023-01-04T11:36:06.419Z,7.50
2023-01-04T11:40:28.690Z,7.50
2023-01-04T11:44:59.845Z,7.60
2023-01-04T11:49:21.654Z,7.60
2023-01-04T11:53:43.633Z,7.60
2023-01-04T11:58:15.246Z,7.70
2023-01-04T12:07:35.075Z,7.80
2023-01-04T12:12:00.546Z,7.70
2023-01-04T12:16:53.724Z,7.80
2023-01-04T12:21:25.501Z,7.80
2023-01-04T12:25:51.808Z,7.60
2023-01-04T12:30:37.456Z,7.40
2023-01-04T12:34:59.689Z,7.40
2023-01-04T12:39:22.675Z,7.40
2023-01-04T12:43:47.559Z,7.50
2023-01-04T12:48:48.294Z,7.50
2023-01-04T12:53:50.578Z,7.60
2023-01-04T12:58:49.719Z,7.60
2023-01-04T13:03:17.170Z,7.60
2023-01-04T13:07:56.525Z,7.70
2023-01-04T13:12:45.262Z,7.80
2023-01-04T13:17:21.958Z,7.70
2023-01-04T13:21:47.210Z,7.70
2023-01-04T13:26:48.559Z,7.70
2023-01-04T13:31:10.588Z,7.80
2023-01-04T13:35:33.123Z,7.80
2023-01-04T13:40:37.506Z,7.80
2023-01-04T13:45:23.581Z,7.90
2023-01-04T13:49:46.490Z,7.90
2023-01-04T13:54:25.409Z,7.90
2023-01-04T13:58:50.114Z,7.90
2023-01-04T14:03:36.787Z,7.90
2023-01-04T14:08:02.456Z,7.80
2023-01-04T14:12:27.787Z,7.80
2023-01-04T14:16:52.051Z,7.70
2023-01-04T14:21:17.819Z,7.70
2023-01-04T14:25:45.113Z,7.70
2023-01-04T14:30:18.917Z,7.70
2023-01-04T14:34:41.126Z,7.60
2023-01-04T14:39:10.228Z,7.70
2023-01-04T14:43:43.661Z,7.70
2023-01-04T14:48:05.762Z,7.60
2023-01-04T14:52:29.916Z,7.50
2023-01-04T14:56:58.152Z,7.50
2023-01-04T15:01:19.981Z,7.50
2023-01-04T15:05:46.952Z,7.60
2023-01-04T15:10:24.753Z,7.60
2023-01-04T15:14:46.632Z,7.60
2023-01-04T15:19:08.674Z,7.70
2023-01-04T15:23:30.726Z,7.70
2023-01-04T15:27:53.311Z,7.60
2023-01-04T15:32:15.145Z,7.40
2023-01-04T15:36:40.817Z,7.30
2023-01-04T15:41:35.706Z,7.20
2023-01-04T15:46:09.955Z,7.20
2023-01-04T15:50:35.826Z,7.40
2023-01-04T15:54:57.405Z,7.40
2023-01-04T15:59:19.732Z,7.50
2023-01-04T16:03:41.912Z,7.60
2023-01-04T16:08:04.778Z,7.70
2023-01-04T16:12:42.624Z,7.60
2023-01-04T16:17:05.737Z,7.60
2023-01-04T16:21:28.883Z,7.70
2023-01-04T16:25:51.028Z,7.80
2023-01-04T16:30:14.715Z,7.80
2023-01-04T16:34:39.097Z,7.80
2023-01-04T16:39:02.096Z,7.80
2023-01-04T16:43:24.039Z,7.90
2023-01-04T16:47:46.208Z,7.90
2023-01-04T16:52:10.782Z,7.90
2023-01-04T16:56:33.876Z,7.90
2023-01-04T17:00:55.641Z,8.00
2023-01-04T17:05:17.487Z,8.10
2023-01-04T17:09:41.366Z,8.20
2023-01-04T17:14:06.476Z,8.30
2023-01-04T17:18:28.692Z,8.40
2023-01-04T17:22:50.773Z,8.40
2023-01-04T17:27:12.746Z,8.50
2023-01-04T17:31:40.141Z,8.60
2023-01-04T17:36:08.624Z,8.60
2023-01-04T17:40:30.831Z,8.60
2023-01-04T17:44:52.864Z,8.70
2023-01-04T17:49:22.814Z,8.70
2023-01-04T17:53:46.551Z,8.80
2023-01-04T17:58:11.725Z,8.90
2023-01-04T18:02:36.469Z,9.00
2023-01-04T18:06:57.957Z,9.00
2023-01-04T18:11:19.948Z,9.10
2023-01-04T18:15:55.101Z,9.10
2023-01-04T18:20:26.762Z,9.20
2023-01-04T18:24:48.767Z,9.30
2023-01-04T18:29:12.236Z,9.30
2023-01-04T18:33:33.990Z,9.30
2023-01-04T18:37:55.817Z,9.40
2023-01-04T18:42:18.014Z,9.40
2023-01-04T18:46:43.001Z,9.40
2023-01-04T18:51:09.436Z,9.40
2023-01-04T18:55:31.330Z,9.40
2023-01-04T18:59:53.275Z,9.40
2023-01-04T19:04:16.298Z,9.40
2023-01-04T19:08:38.274Z,9.50
2023-01-04T19:13:00.262Z,9.30
2023-01-04T19:17:24.606Z,9.20
2023-01-04T19:21:46.567Z,9.10
2023-01-04T19:26:09.355Z,9.20
2023-01-04T19:30:31.123Z,9.00
2023-01-04T19:34:53.129Z,8.80
2023-01-04T19:39:15.192Z,8.80
2023-01-04T19:43:37.240Z,8.80
2023-01-04T19:47:59.832Z,8.70
2023-01-04T19:52:21.711Z,8.60
2023-01-04T19:56:43.928Z,8.50
2023-01-04T20:01:07.205Z,8.50
2023-01-04T20:05:29.329Z,8.60
2023-01-04T20:09:52.109Z,8.70
2023-01-04T20:14:13.732Z,8.80
2023-01-04T20:18:37.326Z,8.70
2023-01-04T20:22:59.251Z,8.60
2023-01-04T20:27:21.535Z,8.70
2023-01-04T20:31:45.834Z,8.80
2023-01-04T20:36:12.840Z,9.00
2023-01-04T20:40:36.909Z,9.10
2023-01-04T20:44:58.637Z,9.30
2023-01-04T20:49:20.745Z,9.30
2023-01-04T20:53:44.330Z,9.00
2023-01-04T20:58:12.923Z,8.90
2023-01-04T21:02:38.301Z,8.80
2023-01-04T21:07:00.338Z,8.60
2023-01-04T21:11:22.902Z,8.50
2023-01-04T21:15:44.959Z,8.50
2023-01-04T21:20:07.713Z,8.50
2023-01-04T21:24:33.606Z,8.50
2023-01-04T21:28:55.741Z,8.60
2023-01-04T21:33:18.132Z,8.80
2023-01-04T21:37:40.619Z,8.90
2023-01-04T21:42:02.547Z,9.10
2023-01-04T21:46:26.094Z,9.30
2023-01-04T21:50:48.533Z,9.40
2023-01-04T21:55:10.943Z,9.50
2023-01-04T21:59:32.673Z,9.60
2023-01-04T22:03:55.590Z,9.60
2023-01-04T22:08:17.745Z,9.60
2023-01-04T22:12:39.856Z,9.70
2023-01-04T22:17:01.922Z,9.70
2023-01-04T22:21:24.009Z,9.70
2023-01-04T22:25:46.085Z,9.80
2023-01-04T22:30:08.852Z,9.80
2023-01-04T22:34:30.681Z,9.80
2023-01-04T22:38:55.157Z,9.80
2023-01-04T22:43:16.896Z,9.80
2023-01-04T22:47:38.947Z,9.90
2023-01-04T22:52:00.905Z,9.80
2023-01-04T22:56:23.583Z,9.80
2023-01-04T23:00:45.338Z,9.70
2023-01-04T23:05:07.534Z,9.70
2023-01-04T23:09:29.557Z,9.80
2023-01-04T23:13:52.508Z,9.80
2023-01-04T23:18:14.252Z,9.80
2023-01-04T23:22:36.084Z,9.80
2023-01-04T23:26:58.139Z,9.80
2023-01-04T23:31:23.637Z,9.70
2023-01-04T23:35:45.626Z,9.70
2023-01-04T23:40:08.002Z,9.70
2023-01-04T23:44:33.340Z,9.70
2023-01-04T23:48:55.221Z,9.60
2023-01-04T23:53:16.717Z,9.60
2023-01-04T23:57:38.618Z,9.50
